sensor_id;sensor_type;location;lat;lon;timestamp;pressure;altitude;pressure_sealevel;temperature;humidity
84853;BME280;75109;47.440;19.310;2024-01-16T00:00:14;98756.47;;;1.89;63.45
84853;BME280;75109;47.440;19.310;2024-01-16T00:00:46;98751.63;;;1.86;63.54
84853;BME280;75109;47.440;19.310;2024-01-16T00:01:18;98753.25;;;1.87;63.72
84853;BME280;75109;47.440;19.310;2024-01-16T00:01:51;98761.97;;;1.89;63.68
84853;BME280;75109;47.440;19.310;2024-01-16T00:02:23;98762.81;;;1.89;63.55
84853;BME280;75109;47.440;19.310;2024-01-16T00:02:55;98765.56;;;1.89;63.64
84853;BME280;75109;47.440;19.310;2024-01-16T00:03:27;98759.41;;;1.83;63.93
84853;BME280;75109;47.440;19.310;2024-01-16T00:04:00;98759.41;;;1.83;64.10
84853;BME280;75109;47.440;19.310;2024-01-16T00:04:32;98761.50;;;1.87;63.77
84853;BME280;75109;47.440;19.310;2024-01-16T00:05:04;98755.81;;;1.83;64.00
84853;BME280;75109;47.440;19.310;2024-01-16T00:05:36;98763.25;;;1.82;64.22
84853;BME280;75109;47.440;19.310;2024-01-16T00:06:08;98754.50;;;1.80;64.08
84853;BME280;75109;47.440;19.310;2024-01-16T00:06:41;98766.00;;;1.82;63.98
84853;BME280;75109;47.440;19.310;2024-01-16T00:07:14;98765.19;;;1.82;64.17
84853;BME280;75109;47.440;19.310;2024-01-16T00:07:47;98766.34;;;1.81;63.76
84853;BME280;75109;47.440;19.310;2024-01-16T00:08:19;98761.97;;;1.80;63.97
84853;BME280;75109;47.440;19.310;2024-01-16T00:08:51;98756.25;;;1.68;63.97
84853;BME280;75109;47.440;19.310;2024-01-16T00:09:24;98764.00;;;1.66;64.51
84853;BME280;75109;47.440;19.310;2024-01-16T00:09:56;98771.28;;;1.62;64.18
84853;BME280;75109;47.440;19.310;2024-01-16T00:10:28;98761.09;;;1.62;64.43
84853;BME280;75109;47.440;19.310;2024-01-16T00:11:01;98758.84;;;1.64;64.20
84853;BME280;75109;47.440;19.310;2024-01-16T00:11:33;98766.75;;;1.66;64.38
84853;BME280;75109;47.440;19.310;2024-01-16T00:12:06;98767.25;;;1.68;64.28
84853;BME280;75109;47.440;19.310;2024-01-16T00:12:38;98764.50;;;1.68;63.96
84853;BME280;75109;47.440;19.310;2024-01-16T00:13:12;98773.06;;;1.66;64.27
84853;BME280;75109;47.440;19.310;2024-01-16T00:13:44;98768.38;;;1.67;64.25
84853;BME280;75109;47.440;19.310;2024-01-16T00:14:16;98767.25;;;1.68;64.20
84853;BME280;75109;47.440;19.310;2024-01-16T00:14:48;98765.44;;;1.63;64.03
84853;BME280;75109;47.440;19.310;2024-01-16T00:15:20;98770.44;;;1.61;64.20
84853;BME280;75109;47.440;19.310;2024-01-16T00:15:52;98770.94;;;1.63;64.07
84853;BME280;75109;47.440;19.310;2024-01-16T00:16:24;98770.44;;;1.61;64.28
84853;BME280;75109;47.440;19.310;2024-01-16T00:16:56;98774.03;;;1.62;64.32
84853;BME280;75109;47.440;19.310;2024-01-16T00:17:28;98769.28;;;1.54;64.53
84853;BME280;75109;47.440;19.310;2024-01-16T00:18:00;98773.63;;;1.46;64.88
84853;BME280;75109;47.440;19.310;2024-01-16T00:18:33;98777.97;;;1.47;64.77
84853;BME280;75109;47.440;19.310;2024-01-16T00:19:05;98779.13;;;1.46;64.92
84853;BME280;75109;47.440;19.310;2024-01-16T00:19:38;98777.69;;;1.49;64.91
84853;BME280;75109;47.440;19.310;2024-01-16T00:20:11;98783.19;;;1.49;65.03
84853;BME280;75109;47.440;19.310;2024-01-16T00:20:43;98783.19;;;1.49;64.80
84853;BME280;75109;47.440;19.310;2024-01-16T00:21:15;98774.94;;;1.49;64.90
84853;BME280;75109;47.440;19.310;2024-01-16T00:21:47;98786.53;;;1.46;64.75
84853;BME280;75109;47.440;19.310;2024-01-16T00:22:19;98776.97;;;1.43;65.00
84853;BME280;75109;47.440;19.310;2024-01-16T00:22:52;98780.69;;;1.39;64.89
84853;BME280;75109;47.440;19.310;2024-01-16T00:23:24;98779.06;;;1.38;65.19
84853;BME280;75109;47.440;19.310;2024-01-16T00:23:57;98776.97;;;1.35;64.92
84853;BME280;75109;47.440;19.310;2024-01-16T00:24:29;98774.81;;;1.32;64.98
84853;BME280;75109;47.440;19.310;2024-01-16T00:25:01;98784.69;;;1.33;65.18
84853;BME280;75109;47.440;19.310;2024-01-16T00:25:34;98782.78;;;1.33;65.01
84853;BME280;75109;47.440;19.310;2024-01-16T00:26:06;98788.25;;;1.33;65.43
84853;BME280;75109;47.440;19.310;2024-01-16T00:26:38;98787.94;;;1.35;64.83
84853;BME280;75109;47.440;19.310;2024-01-16T00:27:10;98792.13;;;1.32;65.02
84853;BME280;75109;47.440;19.310;2024-01-16T00:27:42;98790.50;;;1.31;65.19
84853;BME280;75109;47.440;19.310;2024-01-16T00:28:15;98798.44;;;1.33;65.04
84853;BME280;75109;47.440;19.310;2024-01-16T00:28:47;98793.56;;;1.30;65.19
84853;BME280;75109;47.440;19.310;2024-01-16T00:29:19;98795.34;;;1.26;65.15
84853;BME280;75109;47.440;19.310;2024-01-16T00:29:51;98799.50;;;1.23;65.25
84853;BME280;75109;47.440;19.310;2024-01-16T00:30:23;98793.69;;;1.25;65.01
84853;BME280;75109;47.440;19.310;2024-01-16T00:30:55;98795.63;;;1.24;65.27
84853;BME280;75109;47.440;19.310;2024-01-16T00:31:27;98793.53;;;1.21;65.18
84853;BME280;75109;47.440;19.310;2024-01-16T00:31:59;98792.38;;;1.22;65.28
84853;BME280;75109;47.440;19.310;2024-01-16T00:32:31;98792.53;;;1.17;65.18
84853;BME280;75109;47.440;19.310;2024-01-16T00:33:03;98792.03;;;1.15;65.46
84853;BME280;75109;47.440;19.310;2024-01-16T00:33:35;98797.84;;;1.14;65.35
84853;BME280;75109;47.440;19.310;2024-01-16T00:34:07;98794.59;;;1.12;65.48
84853;BME280;75109;47.440;19.310;2024-01-16T00:34:41;98797.66;;;1.10;65.20
84853;BME280;75109;47.440;19.310;2024-01-16T00:35:13;98792.94;;;1.11;65.47
84853;BME280;75109;47.440;19.310;2024-01-16T00:35:45;98799.41;;;1.06;65.52
84853;BME280;75109;47.440;19.310;2024-01-16T00:36:17;98793.91;;;1.06;65.46
84853;BME280;75109;47.440;19.310;2024-01-16T00:36:49;98805.50;;;1.03;65.80
84853;BME280;75109;47.440;19.310;2024-01-16T00:37:21;98799.31;;;0.98;65.60
84853;BME280;75109;47.440;19.310;2024-01-16T00:37:55;98807.56;;;0.98;65.84
84853;BME280;75109;47.440;19.310;2024-01-16T00:38:27;98799.16;;;0.94;65.56
84853;BME280;75109;47.440;19.310;2024-01-16T00:38:59;98799.47;;;0.93;65.99
84853;BME280;75109;47.440;19.310;2024-01-16T00:39:31;98810.44;;;0.93;65.76
84853;BME280;75109;47.440;19.310;2024-01-16T00:40:04;98817.88;;;0.92;65.90
84853;BME280;75109;47.440;19.310;2024-01-16T00:40:36;98816.22;;;0.91;65.79
84853;BME280;75109;47.440;19.310;2024-01-16T00:41:08;98810.25;;;0.89;65.61
84853;BME280;75109;47.440;19.310;2024-01-16T00:41:40;98814.94;;;0.88;65.77
84853;BME280;75109;47.440;19.310;2024-01-16T00:42:12;98810.53;;;0.87;65.91
84853;BME280;75109;47.440;19.310;2024-01-16T00:42:44;98808.13;;;0.86;65.81
84853;BME280;75109;47.440;19.310;2024-01-16T00:43:16;98821.75;;;0.77;65.74
84853;BME280;75109;47.440;19.310;2024-01-16T00:43:49;98817.41;;;0.76;66.21
84853;BME280;75109;47.440;19.310;2024-01-16T00:44:21;98816.59;;;0.76;66.12
84853;BME280;75109;47.440;19.310;2024-01-16T00:44:53;98820.97;;;0.77;66.02
84853;BME280;75109;47.440;19.310;2024-01-16T00:45:25;98823.53;;;0.73;66.14
84853;BME280;75109;47.440;19.310;2024-01-16T00:45:57;98825.78;;;0.71;66.09
84853;BME280;75109;47.440;19.310;2024-01-16T00:46:29;98826.28;;;0.73;66.05
84853;BME280;75109;47.440;19.310;2024-01-16T00:47:01;98829.53;;;0.75;66.19
84853;BME280;75109;47.440;19.310;2024-01-16T00:47:33;98832.06;;;0.72;66.00
84853;BME280;75109;47.440;19.310;2024-01-16T00:48:05;98832.50;;;0.65;66.12
84853;BME280;75109;47.440;19.310;2024-01-16T00:48:37;98836.66;;;0.63;66.17
84853;BME280;75109;47.440;19.310;2024-01-16T00:49:10;98836.16;;;0.61;66.06
84853;BME280;75109;47.440;19.310;2024-01-16T00:49:42;98830.97;;;0.59;66.33
84853;BME280;75109;47.440;19.310;2024-01-16T00:50:14;98833.31;;;0.52;66.35
84853;BME280;75109;47.440;19.310;2024-01-16T00:50:46;98835.78;;;0.54;66.43
84853;BME280;75109;47.440;19.310;2024-01-16T00:51:21;98835.78;;;0.54;66.61
84853;BME280;75109;47.440;19.310;2024-01-16T00:51:53;98838.22;;;0.55;66.48
84853;BME280;75109;47.440;19.310;2024-01-16T00:52:25;98847.75;;;0.58;66.13
84853;BME280;75109;47.440;19.310;2024-01-16T00:52:58;98840.63;;;0.57;66.06
84853;BME280;75109;47.440;19.310;2024-01-16T00:53:30;98845.13;;;0.53;66.23
84853;BME280;75109;47.440;19.310;2024-01-16T00:54:02;98839.63;;;0.53;66.61
84853;BME280;75109;47.440;19.310;2024-01-16T00:54:35;98845.13;;;0.53;66.06
84853;BME280;75109;47.440;19.310;2024-01-16T00:55:07;98844.91;;;0.49;66.44
84853;BME280;75109;47.440;19.310;2024-01-16T00:55:39;98838.94;;;0.47;66.42
84853;BME280;75109;47.440;19.310;2024-01-16T00:56:11;98848.78;;;0.48;66.55
84853;BME280;75109;47.440;19.310;2024-01-16T00:56:44;98858.63;;;0.49;66.70
84853;BME280;75109;47.440;19.310;2024-01-16T00:57:16;98855.06;;;0.49;66.87
84853;BME280;75109;47.440;19.310;2024-01-16T00:57:51;98849.09;;;0.47;66.65
84853;BME280;75109;47.440;19.310;2024-01-16T00:58:24;98849.91;;;0.47;66.47
84853;BME280;75109;47.440;19.310;2024-01-16T00:58:56;98851.22;;;0.50;66.29
84853;BME280;75109;47.440;19.310;2024-01-16T00:59:28;98860.06;;;0.47;66.45
84853;BME280;75109;47.440;19.310;2024-01-16T01:00:00;98856.53;;;0.46;66.63
84853;BME280;75109;47.440;19.310;2024-01-16T01:00:32;98859.25;;;0.46;66.79
84853;BME280;75109;47.440;19.310;2024-01-16T01:01:05;98866.34;;;0.47;66.78
84853;BME280;75109;47.440;19.310;2024-01-16T01:01:37;98871.34;;;0.45;66.66
84853;BME280;75109;47.440;19.310;2024-01-16T01:02:10;98864.44;;;0.48;66.82
84853;BME280;75109;47.440;19.310;2024-01-16T01:02:43;98868.97;;;0.52;66.69
84853;BME280;75109;47.440;19.310;2024-01-16T01:03:15;98875.47;;;0.56;66.46
84853;BME280;75109;47.440;19.310;2024-01-16T01:03:47;98871.63;;;0.57;66.45
84853;BME280;75109;47.440;19.310;2024-01-16T01:04:20;98869.50;;;0.54;66.42
84853;BME280;75109;47.440;19.310;2024-01-16T01:04:52;98867.88;;;0.53;66.81
84853;BME280;75109;47.440;19.310;2024-01-16T01:05:24;98872.53;;;0.53;66.69
84853;BME280;75109;47.440;19.310;2024-01-16T01:06:00;98868.38;;;0.55;66.75
84853;BME280;75109;47.440;19.310;2024-01-16T01:06:32;98872.44;;;0.58;66.82
84853;BME280;75109;47.440;19.310;2024-01-16T01:07:04;98880.06;;;0.61;66.27
84853;BME280;75109;47.440;19.310;2024-01-16T01:07:36;98878.94;;;0.62;66.30
84853;BME280;75109;47.440;19.310;2024-01-16T01:08:09;98874.75;;;0.64;66.62
84853;BME280;75109;47.440;19.310;2024-01-16T01:08:41;98873.66;;;0.65;66.55
84853;BME280;75109;47.440;19.310;2024-01-16T01:09:13;98873.34;;;0.67;66.35
84853;BME280;75109;47.440;19.310;2024-01-16T01:09:45;98876.09;;;0.67;66.39
84853;BME280;75109;47.440;19.310;2024-01-16T01:10:18;98877.69;;;0.68;66.55
84853;BME280;75109;47.440;19.310;2024-01-16T01:10:50;98875.56;;;0.65;66.80
84853;BME280;75109;47.440;19.310;2024-01-16T01:11:22;98878.31;;;0.65;67.16
84853;BME280;75109;47.440;19.310;2024-01-16T01:11:54;98882.66;;;0.66;66.78
84853;BME280;75109;47.440;19.310;2024-01-16T01:12:26;98876.09;;;0.67;66.86
84853;BME280;75109;47.440;19.310;2024-01-16T01:12:58;98881.25;;;0.68;66.66
84853;BME280;75109;47.440;19.310;2024-01-16T01:13:30;98880.34;;;0.73;66.89
84853;BME280;75109;47.440;19.310;2024-01-16T01:14:02;98882.44;;;0.76;66.69
84853;BME280;75109;47.440;19.310;2024-01-16T01:14:34;98881.84;;;0.79;66.88
84853;BME280;75109;47.440;19.310;2024-01-16T01:15:07;98886.22;;;0.80;66.74
84853;BME280;75109;47.440;19.310;2024-01-16T01:15:39;98882.34;;;0.81;66.81
84853;BME280;75109;47.440;19.310;2024-01-16T01:16:11;98879.91;;;0.79;67.02
84853;BME280;75109;47.440;19.310;2024-01-16T01:16:43;98886.22;;;0.80;66.79
84853;BME280;75109;47.440;19.310;2024-01-16T01:17:15;98887.84;;;0.81;66.78
84853;BME280;75109;47.440;19.310;2024-01-16T01:17:48;98895.06;;;0.77;66.56
84853;BME280;75109;47.440;19.310;2024-01-16T01:18:21;98896.88;;;0.81;66.77
84853;BME280;75109;47.440;19.310;2024-01-16T01:18:54;98890.59;;;0.81;66.63
84853;BME280;75109;47.440;19.310;2024-01-16T01:19:26;98891.69;;;0.80;66.73
84853;BME280;75109;47.440;19.310;2024-01-16T01:19:58;98892.19;;;0.82;66.78
84853;BME280;75109;47.440;19.310;2024-01-16T01:20:30;98892.19;;;0.82;66.90
84853;BME280;75109;47.440;19.310;2024-01-16T01:21:02;98897.09;;;0.85;67.02
84853;BME280;75109;47.440;19.310;2024-01-16T01:21:35;98902.44;;;0.90;66.71
84853;BME280;75109;47.440;19.310;2024-01-16T01:22:07;98901.03;;;0.93;66.67
84853;BME280;75109;47.440;19.310;2024-01-16T01:22:39;98901.81;;;0.93;66.87
84853;BME280;75109;47.440;19.310;2024-01-16T01:23:13;98906.53;;;0.93;66.73
84853;BME280;75109;47.440;19.310;2024-01-16T01:23:45;98898.09;;;0.89;66.80
84853;BME280;75109;47.440;19.310;2024-01-16T01:24:17;98898.09;;;0.89;67.28
84853;BME280;75109;47.440;19.310;2024-01-16T01:24:49;98902.94;;;0.92;66.81
84853;BME280;75109;47.440;19.310;2024-01-16T01:25:21;98896.66;;;0.91;66.77
84853;BME280;75109;47.440;19.310;2024-01-16T01:25:53;98902.63;;;0.93;67.00
84853;BME280;75109;47.440;19.310;2024-01-16T01:26:25;98904.47;;;0.98;67.21
84853;BME280;75109;47.440;19.310;2024-01-16T01:26:58;98901.72;;;0.98;66.70
84853;BME280;75109;47.440;19.310;2024-01-16T01:27:30;98896.03;;;0.95;66.94
84853;BME280;75109;47.440;19.310;2024-01-16T01:28:02;98899.56;;;0.95;66.90
84853;BME280;75109;47.440;19.310;2024-01-16T01:28:34;98902.31;;;0.95;66.93
84853;BME280;75109;47.440;19.310;2024-01-16T01:29:06;98899.56;;;0.95;66.75
84853;BME280;75109;47.440;19.310;2024-01-16T01:29:38;98900.41;;;0.96;66.91
84853;BME280;75109;47.440;19.310;2024-01-16T01:30:10;98900.72;;;0.94;67.00
84853;BME280;75109;47.440;19.310;2024-01-16T01:30:42;98902.81;;;0.97;66.68
84853;BME280;75109;47.440;19.310;2024-01-16T01:31:14;98893.81;;;0.97;66.66
84853;BME280;75109;47.440;19.310;2024-01-16T01:31:46;98898.31;;;0.79;67.29
84853;BME280;75109;47.440;19.310;2024-01-16T01:32:21;98904.31;;;0.81;67.76
84853;BME280;75109;47.440;19.310;2024-01-16T01:32:53;98900.94;;;0.84;67.60
84853;BME280;75109;47.440;19.310;2024-01-16T01:33:25;98902.25;;;0.86;67.57
84853;BME280;75109;47.440;19.310;2024-01-16T01:33:57;98899.72;;;0.90;67.25
84853;BME280;75109;47.440;19.310;2024-01-16T01:34:29;98901.31;;;0.91;67.42
84853;BME280;75109;47.440;19.310;2024-01-16T01:35:02;98900.53;;;0.90;67.54
84853;BME280;75109;47.440;19.310;2024-01-16T01:35:34;98901.63;;;0.89;67.43
84853;BME280;75109;47.440;19.310;2024-01-16T01:36:06;98897.47;;;0.92;67.29
84853;BME280;75109;47.440;19.310;2024-01-16T01:36:38;98905.69;;;0.92;67.37
84853;BME280;75109;47.440;19.310;2024-01-16T01:37:10;98906.81;;;0.91;67.46
84853;BME280;75109;47.440;19.310;2024-01-16T01:37:42;98902.13;;;0.91;67.40
84853;BME280;75109;47.440;19.310;2024-01-16T01:38:16;98900.53;;;0.90;67.71
84853;BME280;75109;47.440;19.310;2024-01-16T01:38:50;98906.00;;;0.90;67.48
84853;BME280;75109;47.440;19.310;2024-01-16T01:39:22;98904.06;;;0.91;67.72
84853;BME280;75109;47.440;19.310;2024-01-16T01:39:55;98897.59;;;0.87;67.69
84853;BME280;75109;47.440;19.310;2024-01-16T01:40:27;98904.19;;;0.86;67.68
84853;BME280;75109;47.440;19.310;2024-01-16T01:40:59;98902.56;;;0.85;67.80
84853;BME280;75109;47.440;19.310;2024-01-16T01:41:31;98899.31;;;0.83;67.93
84853;BME280;75109;47.440;19.310;2024-01-16T01:42:03;98910.59;;;0.81;67.77
84853;BME280;75109;47.440;19.310;2024-01-16T01:42:36;98902.06;;;0.83;67.71
84853;BME280;75109;47.440;19.310;2024-01-16T01:43:17;98900.63;;;0.85;67.89
84853;BME280;75109;47.440;19.310;2024-01-16T01:43:51;98901.94;;;0.88;68.01
84853;BME280;75109;47.440;19.310;2024-01-16T01:44:23;98895.34;;;0.89;67.89
84853;BME280;75109;47.440;19.310;2024-01-16T01:44:56;98900.34;;;0.87;67.58
84853;BME280;75109;47.440;19.310;2024-01-16T01:45:28;98899.53;;;0.86;67.99
84853;BME280;75109;47.440;19.310;2024-01-16T01:46:09;98898.50;;;0.82;68.08
84853;BME280;75109;47.440;19.310;2024-01-16T01:46:42;98902.06;;;0.83;68.23
84853;BME280;75109;47.440;19.310;2024-01-16T01:47:15;98900.44;;;0.82;67.95
84853;BME280;75109;47.440;19.310;2024-01-16T01:47:47;98901.75;;;0.84;67.99
84853;BME280;75109;47.440;19.310;2024-01-16T01:48:20;98904.19;;;0.86;67.73
84853;BME280;75109;47.440;19.310;2024-01-16T01:48:52;98899.72;;;0.90;67.86
84853;BME280;75109;47.440;19.310;2024-01-16T01:49:25;98903.78;;;0.93;67.61
84853;BME280;75109;47.440;19.310;2024-01-16T01:49:57;98899.91;;;0.93;67.57
84853;BME280;75109;47.440;19.310;2024-01-16T01:50:29;98898.88;;;0.89;67.94
84853;BME280;75109;47.440;19.310;2024-01-16T01:51:02;98909.53;;;0.91;67.52
84853;BME280;75109;47.440;19.310;2024-01-16T01:51:34;98908.44;;;0.92;67.66
84853;BME280;75109;47.440;19.310;2024-01-16T01:52:07;98908.75;;;0.90;67.63
84853;BME280;75109;47.440;19.310;2024-01-16T01:52:41;98908.34;;;0.83;67.97
84853;BME280;75109;47.440;19.310;2024-01-16T01:53:13;98908.66;;;0.82;67.85
84853;BME280;75109;47.440;19.310;2024-01-16T01:53:49;98903.81;;;0.79;68.09
84853;BME280;75109;47.440;19.310;2024-01-16T01:54:23;98904.09;;;0.77;68.16
84853;BME280;75109;47.440;19.310;2024-01-16T01:54:56;98918.03;;;0.81;68.06
84853;BME280;75109;47.440;19.310;2024-01-16T01:55:28;98908.84;;;0.85;67.82
84853;BME280;75109;47.440;19.310;2024-01-16T01:56:03;98923.09;;;0.87;68.04
84853;BME280;75109;47.440;19.310;2024-01-16T01:56:37;98923.91;;;0.88;67.44
84853;BME280;75109;47.440;19.310;2024-01-16T01:57:09;98918.41;;;0.88;67.64
84853;BME280;75109;47.440;19.310;2024-01-16T01:57:42;98921.16;;;0.88;67.66
84853;BME280;75109;47.440;19.310;2024-01-16T01:58:15;98921.16;;;0.88;67.56
84853;BME280;75109;47.440;19.310;2024-01-16T01:58:51;98926.66;;;0.88;67.64
84853;BME280;75109;47.440;19.310;2024-01-16T01:59:25;98929.06;;;0.89;67.34
84853;BME280;75109;47.440;19.310;2024-01-16T01:59:57;98924.09;;;0.91;67.47
84853;BME280;75109;47.440;19.310;2024-01-16T02:00:30;98928.28;;;0.89;67.50
84853;BME280;75109;47.440;19.310;2024-01-16T02:01:02;98927.16;;;0.90;67.27
84853;BME280;75109;47.440;19.310;2024-01-16T02:01:35;98927.78;;;0.87;67.45
84853;BME280;75109;47.440;19.310;2024-01-16T02:02:07;98930.81;;;0.85;67.46
84853;BME280;75109;47.440;19.310;2024-01-16T02:02:41;98931.63;;;0.86;67.40
84853;BME280;75109;47.440;19.310;2024-01-16T02:03:13;98942.09;;;0.84;67.49
84853;BME280;75109;47.440;19.310;2024-01-16T02:03:46;98937.44;;;0.84;67.47
84853;BME280;75109;47.440;19.310;2024-01-16T02:04:19;98933.88;;;0.84;67.39
84853;BME280;75109;47.440;19.310;2024-01-16T02:04:52;98932.25;;;0.83;67.51
84853;BME280;75109;47.440;19.310;2024-01-16T02:05:24;98935.28;;;0.81;67.54
84853;BME280;75109;47.440;19.310;2024-01-16T02:05:56;98937.34;;;0.76;67.60
84853;BME280;75109;47.440;19.310;2024-01-16T02:06:29;98930.13;;;0.80;67.74
84853;BME280;75109;47.440;19.310;2024-01-16T02:07:01;98933.88;;;0.84;67.57
84853;BME280;75109;47.440;19.310;2024-01-16T02:07:33;98931.13;;;0.84;67.50
84853;BME280;75109;47.440;19.310;2024-01-16T02:08:06;98944.53;;;0.85;67.45
84853;BME280;75109;47.440;19.310;2024-01-16T02:08:39;98938.44;;;0.88;67.39
84853;BME280;75109;47.440;19.310;2024-01-16T02:09:13;98941.78;;;0.85;67.32
84853;BME280;75109;47.440;19.310;2024-01-16T02:09:45;98936.94;;;0.82;67.50
84853;BME280;75109;47.440;19.310;2024-01-16T02:10:17;98932.28;;;0.69;67.52
84853;BME280;75109;47.440;19.310;2024-01-16T02:10:50;98937.47;;;0.71;67.90
84853;BME280;75109;47.440;19.310;2024-01-16T02:11:22;98936.84;;;0.74;67.65
84853;BME280;75109;47.440;19.310;2024-01-16T02:11:54;98938.16;;;0.76;67.42
84853;BME280;75109;47.440;19.310;2024-01-16T02:12:26;98943.25;;;0.83;67.40
84853;BME280;75109;47.440;19.310;2024-01-16T02:12:58;98938.25;;;0.85;67.34
84853;BME280;75109;47.440;19.310;2024-01-16T02:13:31;98945.88;;;0.88;67.27
84853;BME280;75109;47.440;19.310;2024-01-16T02:14:03;98955.44;;;0.90;67.17
84853;BME280;75109;47.440;19.310;2024-01-16T02:14:35;98947.50;;;0.89;67.16
84853;BME280;75109;47.440;19.310;2024-01-16T02:15:07;98943.00;;;0.93;67.04
84853;BME280;75109;47.440;19.310;2024-01-16T02:15:40;98951.53;;;0.91;67.23
84853;BME280;75109;47.440;19.310;2024-01-16T02:16:19;98947.38;;;0.94;67.04
84853;BME280;75109;47.440;19.310;2024-01-16T02:16:51;98943.50;;;0.95;67.13
84853;BME280;75109;47.440;19.310;2024-01-16T02:17:23;98948.72;;;0.97;66.95
84853;BME280;75109;47.440;19.310;2024-01-16T02:17:57;98950.50;;;1.01;67.17
84853;BME280;75109;47.440;19.310;2024-01-16T02:18:29;98955.72;;;1.03;66.65
84853;BME280;75109;47.440;19.310;2024-01-16T02:19:01;98955.09;;;1.06;66.68
84853;BME280;75109;47.440;19.310;2024-01-16T02:19:33;98951.50;;;1.05;66.86
84853;BME280;75109;47.440;19.310;2024-01-16T02:20:06;98958.66;;;1.06;66.96
84853;BME280;75109;47.440;19.310;2024-01-16T02:20:39;98956.19;;;1.05;66.63
84853;BME280;75109;47.440;19.310;2024-01-16T02:21:12;98948.78;;;1.05;66.36
84853;BME280;75109;47.440;19.310;2024-01-16T02:21:49;98957.00;;;1.05;66.36
84853;BME280;75109;47.440;19.310;2024-01-16T02:22:25;98954.75;;;1.07;66.54
84853;BME280;75109;47.440;19.310;2024-01-16T02:23:00;98952.03;;;1.07;66.23
84853;BME280;75109;47.440;19.310;2024-01-16T02:23:36;98958.53;;;1.11;66.11
84853;BME280;75109;47.440;19.310;2024-01-16T02:24:10;98961.44;;;1.15;65.97
84853;BME280;75109;47.440;19.310;2024-01-16T02:24:44;98955.47;;;1.13;66.10
84853;BME280;75109;47.440;19.310;2024-01-16T02:25:16;98965.03;;;1.15;66.10
84853;BME280;75109;47.440;19.310;2024-01-16T02:25:48;98957.91;;;1.14;65.81
84853;BME280;75109;47.440;19.310;2024-01-16T02:26:21;98960.03;;;1.17;65.91
84853;BME280;75109;47.440;19.310;2024-01-16T02:26:53;98964.09;;;1.20;65.96
84853;BME280;75109;47.440;19.310;2024-01-16T02:27:25;98959.22;;;1.17;66.25
84853;BME280;75109;47.440;19.310;2024-01-16T02:27:59;98967.13;;;1.18;66.15
84853;BME280;75109;47.440;19.310;2024-01-16T02:28:31;98964.91;;;1.20;65.82
84853;BME280;75109;47.440;19.310;2024-01-16T02:29:03;98964.28;;;1.23;65.81
84853;BME280;75109;47.440;19.310;2024-01-16T02:29:40;98960.91;;;1.26;65.47
84853;BME280;75109;47.440;19.310;2024-01-16T02:30:12;98961.72;;;1.27;65.80
84853;BME280;75109;47.440;19.310;2024-01-16T02:30:44;98964.47;;;1.27;65.34
84853;BME280;75109;47.440;19.310;2024-01-16T02:31:16;98963.06;;;1.29;65.43
84853;BME280;75109;47.440;19.310;2024-01-16T02:31:49;98963.56;;;1.31;65.28
84853;BME280;75109;47.440;19.310;2024-01-16T02:32:21;98966.50;;;1.35;65.32
84853;BME280;75109;47.440;19.310;2024-01-16T02:32:53;98961.59;;;1.32;65.40
84853;BME280;75109;47.440;19.310;2024-01-16T02:33:25;98963.56;;;1.31;65.56
84853;BME280;75109;47.440;19.310;2024-01-16T02:33:57;98968.22;;;1.31;65.21
84853;BME280;75109;47.440;19.310;2024-01-16T02:34:30;98963.25;;;1.33;65.22
84853;BME280;75109;47.440;19.310;2024-01-16T02:35:02;98961.31;;;1.33;65.20
84853;BME280;75109;47.440;19.310;2024-01-16T02:35:35;98960.81;;;1.31;64.99
84853;BME280;75109;47.440;19.310;2024-01-16T02:36:08;98963.25;;;1.33;64.96
84853;BME280;75109;47.440;19.310;2024-01-16T02:36:40;98968.72;;;1.33;65.20
84853;BME280;75109;47.440;19.310;2024-01-16T02:37:12;98969.34;;;1.30;65.43
84853;BME280;75109;47.440;19.310;2024-01-16T02:37:44;98970.09;;;1.22;65.37
84853;BME280;75109;47.440;19.310;2024-01-16T02:38:16;98973.63;;;1.22;65.72
84853;BME280;75109;47.440;19.310;2024-01-16T02:38:49;98977.53;;;1.21;65.35
84853;BME280;75109;47.440;19.310;2024-01-16T02:39:21;98977.00;;;1.19;65.53
84853;BME280;75109;47.440;19.310;2024-01-16T02:39:53;98975.09;;;1.20;65.54
84853;BME280;75109;47.440;19.310;2024-01-16T02:40:25;98979.13;;;1.22;65.32
84853;BME280;75109;47.440;19.310;2024-01-16T02:40:57;98979.94;;;1.23;65.40
84853;BME280;75109;47.440;19.310;2024-01-16T02:41:29;98981.28;;;1.25;65.58
84853;BME280;75109;47.440;19.310;2024-01-16T02:42:01;98981.78;;;1.27;65.46
84853;BME280;75109;47.440;19.310;2024-01-16T02:42:33;98985.53;;;1.31;65.50
84853;BME280;75109;47.440;19.310;2024-01-16T02:43:05;98978.91;;;1.32;65.47
84853;BME280;75109;47.440;19.310;2024-01-16T02:43:37;98983.78;;;1.35;65.09
84853;BME280;75109;47.440;19.310;2024-01-16T02:44:10;98990.06;;;1.36;65.17
84853;BME280;75109;47.440;19.310;2024-01-16T02:44:41;98985.72;;;1.35;64.95
84853;BME280;75109;47.440;19.310;2024-01-16T02:45:14;98984.41;;;1.32;65.19
84853;BME280;75109;47.440;19.310;2024-01-16T02:45:45;98987.16;;;1.32;64.92
84853;BME280;75109;47.440;19.310;2024-01-16T02:46:17;98982.78;;;1.31;65.44
84853;BME280;75109;47.440;19.310;2024-01-16T02:46:50;98985.53;;;1.31;64.97
84853;BME280;75109;47.440;19.310;2024-01-16T02:47:22;98986.94;;;1.29;65.20
84853;BME280;75109;47.440;19.310;2024-01-16T02:47:54;98982.59;;;1.28;65.02
84853;BME280;75109;47.440;19.310;2024-01-16T02:48:27;98991.44;;;1.25;65.07
84853;BME280;75109;47.440;19.310;2024-01-16T02:48:59;98986.25;;;1.23;65.28
84853;BME280;75109;47.440;19.310;2024-01-16T02:49:31;98990.13;;;1.22;65.04
84853;BME280;75109;47.440;19.310;2024-01-16T02:50:05;98998.16;;;1.19;65.07
84853;BME280;75109;47.440;19.310;2024-01-16T02:50:37;98990.25;;;1.17;65.27
84853;BME280;75109;47.440;19.310;2024-01-16T02:51:10;98987.31;;;1.14;65.48
84853;BME280;75109;47.440;19.310;2024-01-16T02:51:42;98991.97;;;1.13;65.36
84853;BME280;75109;47.440;19.310;2024-01-16T02:52:15;98989.34;;;1.08;65.52